sensor_id;sensor_type;location;lat;lon;timestamp;P1;durP1;ratioP1;P2;durP2;ratioP2
10882;SDS011;5494;51.796;10.952;2023-11-18T00:00:20;13.30;;;9.77;;
10882;SDS011;5494;51.796;10.952;2023-11-18T00:02:49;13.83;;;10.77;;
10882;SDS011;5494;51.796;10.952;2023-11-18T00:05:18;14.40;;;9.87;;
10882;SDS011;5494;51.796;10.952;2023-11-18T00:07:48;14.40;;;10.37;;
10882;SDS011;5494;51.796;10.952;2023-11-18T00:10:16;16.07;;;10.67;;
10882;SDS011;5494;51.796;10.952;2023-11-18T00:12:44;18.83;;;10.93;;
10882;SDS011;5494;51.796;10.952;2023-11-18T00:15:13;14.47;;;10.30;;
10882;SDS011;5494;51.796;10.952;2023-11-18T00:17:41;13.97;;;10.63;;
10882;SDS011;5494;51.796;10.952;2023-11-18T00:20:10;17.97;;;10.93;;
10882;SDS011;5494;51.796;10.952;2023-11-18T00:22:40;14.87;;;10.70;;
10882;SDS011;5494;51.796;10.952;2023-11-18T00:25:10;15.53;;;10.90;;
10882;SDS011;5494;51.796;10.952;2023-11-18T00:27:40;14.43;;;10.63;;
10882;SDS011;5494;51.796;10.952;2023-11-18T00:30:09;19.43;;;11.93;;
10882;SDS011;5494;51.796;10.952;2023-11-18T00:32:39;17.60;;;11.00;;
10882;SDS011;5494;51.796;10.952;2023-11-18T00:35:08;17.30;;;11.03;;
10882;SDS011;5494;51.796;10.952;2023-11-18T00:37:37;16.60;;;11.67;;
10882;SDS011;5494;51.796;10.952;2023-11-18T00:40:06;18.10;;;11.67;;
10882;SDS011;5494;51.796;10.952;2023-11-18T00:42:37;19.10;;;11.27;;
10882;SDS011;5494;51.796;10.952;2023-11-18T00:45:06;17.53;;;12.33;;
10882;SDS011;5494;51.796;10.952;2023-11-18T00:47:35;16.57;;;11.70;;
10882;SDS011;5494;51.796;10.952;2023-11-18T00:50:04;14.50;;;10.77;;
10882;SDS011;5494;51.796;10.952;2023-11-18T00:52:34;17.23;;;12.03;;
10882;SDS011;5494;51.796;10.952;2023-11-18T00:55:05;17.73;;;12.73;;
10882;SDS011;5494;51.796;10.952;2023-11-18T00:57:35;26.80;;;17.80;;
10882;SDS011;5494;51.796;10.952;2023-11-18T01:00:07;25.10;;;15.20;;
10882;SDS011;5494;51.796;10.952;2023-11-18T01:02:43;29.73;;;19.80;;
10882;SDS011;5494;51.796;10.952;2023-11-18T01:05:14;24.57;;;17.30;;
10882;SDS011;5494;51.796;10.952;2023-11-18T01:07:42;20.00;;;15.10;;
10882;SDS011;5494;51.796;10.952;2023-11-18T01:10:11;18.33;;;13.30;;
10882;SDS011;5494;51.796;10.952;2023-11-18T01:12:40;19.10;;;13.03;;
10882;SDS011;5494;51.796;10.952;2023-11-18T01:15:12;16.63;;;12.37;;
10882;SDS011;5494;51.796;10.952;2023-11-18T01:17:41;21.33;;;13.73;;
10882;SDS011;5494;51.796;10.952;2023-11-18T01:20:10;19.03;;;13.03;;
10882;SDS011;5494;51.796;10.952;2023-11-18T01:22:39;18.77;;;12.93;;
10882;SDS011;5494;51.796;10.952;2023-11-18T01:25:09;20.33;;;13.57;;
10882;SDS011;5494;51.796;10.952;2023-11-18T01:27:37;18.60;;;13.00;;
10882;SDS011;5494;51.796;10.952;2023-11-18T01:30:06;19.90;;;14.67;;
10882;SDS011;5494;51.796;10.952;2023-11-18T01:32:37;23.13;;;15.37;;
10882;SDS011;5494;51.796;10.952;2023-11-18T01:35:07;22.77;;;15.93;;
10882;SDS011;5494;51.796;10.952;2023-11-18T01:37:37;28.03;;;15.63;;
10882;SDS011;5494;51.796;10.952;2023-11-18T01:40:06;20.17;;;14.83;;
10882;SDS011;5494;51.796;10.952;2023-11-18T01:42:36;22.63;;;14.70;;
10882;SDS011;5494;51.796;10.952;2023-11-18T01:45:05;23.57;;;15.20;;
10882;SDS011;5494;51.796;10.952;2023-11-18T01:47:39;21.27;;;14.93;;
10882;SDS011;5494;51.796;10.952;2023-11-18T01:50:09;22.63;;;15.37;;
10882;SDS011;5494;51.796;10.952;2023-11-18T01:52:40;25.13;;;15.83;;
10882;SDS011;5494;51.796;10.952;2023-11-18T01:55:12;23.60;;;15.97;;
10882;SDS011;5494;51.796;10.952;2023-11-18T01:57:40;27.47;;;16.47;;
10882;SDS011;5494;51.796;10.952;2023-11-18T02:00:11;24.33;;;16.87;;
10882;SDS011;5494;51.796;10.952;2023-11-18T02:02:45;26.63;;;17.17;;
10882;SDS011;5494;51.796;10.952;2023-11-18T02:05:15;26.67;;;16.47;;
10882;SDS011;5494;51.796;10.952;2023-11-18T02:07:44;23.83;;;16.63;;
10882;SDS011;5494;51.796;10.952;2023-11-18T02:10:14;27.30;;;17.40;;
10882;SDS011;5494;51.796;10.952;2023-11-18T02:12:44;24.60;;;17.73;;
10882;SDS011;5494;51.796;10.952;2023-11-18T02:15:22;27.70;;;18.27;;
10882;SDS011;5494;51.796;10.952;2023-11-18T02:17:54;30.83;;;19.10;;
10882;SDS011;5494;51.796;10.952;2023-11-18T02:20:25;27.73;;;18.57;;
10882;SDS011;5494;51.796;10.952;2023-11-18T02:22:53;26.17;;;17.87;;
10882;SDS011;5494;51.796;10.952;2023-11-18T02:25:23;30.43;;;18.60;;
10882;SDS011;5494;51.796;10.952;2023-11-18T02:27:57;26.47;;;18.07;;
10882;SDS011;5494;51.796;10.952;2023-11-18T02:30:25;27.23;;;18.17;;
10882;SDS011;5494;51.796;10.952;2023-11-18T02:32:58;27.70;;;17.20;;
10882;SDS011;5494;51.796;10.952;2023-11-18T02:35:34;27.90;;;17.73;;
10882;SDS011;5494;51.796;10.952;2023-11-18T02:38:09;25.07;;;16.70;;
10882;SDS011;5494;51.796;10.952;2023-11-18T02:40:39;28.03;;;17.77;;
10882;SDS011;5494;51.796;10.952;2023-11-18T02:43:11;25.90;;;16.57;;
10882;SDS011;5494;51.796;10.952;2023-11-18T02:45:40;25.03;;;15.77;;
10882;SDS011;5494;51.796;10.952;2023-11-18T02:48:10;27.87;;;15.97;;
10882;SDS011;5494;51.796;10.952;2023-11-18T02:50:38;21.90;;;14.70;;
10882;SDS011;5494;51.796;10.952;2023-11-18T02:53:08;24.10;;;16.73;;
10882;SDS011;5494;51.796;10.952;2023-11-18T02:55:36;21.87;;;15.43;;
10882;SDS011;5494;51.796;10.952;2023-11-18T02:58:04;24.27;;;16.10;;
10882;SDS011;5494;51.796;10.952;2023-11-18T03:00:35;24.97;;;15.90;;
10882;SDS011;5494;51.796;10.952;2023-11-18T03:03:04;23.87;;;15.83;;
10882;SDS011;5494;51.796;10.952;2023-11-18T03:05:33;22.87;;;15.73;;
10882;SDS011;5494;51.796;10.952;2023-11-18T03:08:02;25.23;;;16.73;;
10882;SDS011;5494;51.796;10.952;2023-11-18T03:10:32;26.43;;;16.40;;
10882;SDS011;5494;51.796;10.952;2023-11-18T03:13:01;24.63;;;15.90;;
10882;SDS011;5494;51.796;10.952;2023-11-18T03:15:30;26.30;;;16.63;;
10882;SDS011;5494;51.796;10.952;2023-11-18T03:17:59;23.47;;;16.47;;
10882;SDS011;5494;51.796;10.952;2023-11-18T03:20:28;23.27;;;14.67;;
10882;SDS011;5494;51.796;10.952;2023-11-18T03:22:58;22.93;;;15.80;;
10882;SDS011;5494;51.796;10.952;2023-11-18T03:25:28;21.93;;;15.57;;
10882;SDS011;5494;51.796;10.952;2023-11-18T03:27:56;21.50;;;14.97;;
10882;SDS011;5494;51.796;10.952;2023-11-18T03:30:25;21.63;;;15.00;;
10882;SDS011;5494;51.796;10.952;2023-11-18T03:32:56;22.60;;;15.07;;
10882;SDS011;5494;51.796;10.952;2023-11-18T03:35:25;19.90;;;13.60;;
10882;SDS011;5494;51.796;10.952;2023-11-18T03:37:53;18.17;;;13.60;;
10882;SDS011;5494;51.796;10.952;2023-11-18T03:40:22;25.27;;;14.50;;
10882;SDS011;5494;51.796;10.952;2023-11-18T03:42:50;20.90;;;13.90;;
10882;SDS011;5494;51.796;10.952;2023-11-18T03:45:20;19.13;;;13.67;;
10882;SDS011;5494;51.796;10.952;2023-11-18T03:47:48;18.30;;;13.50;;
10882;SDS011;5494;51.796;10.952;2023-11-18T03:50:16;19.13;;;12.73;;
10882;SDS011;5494;51.796;10.952;2023-11-18T03:52:47;17.17;;;11.93;;
10882;SDS011;5494;51.796;10.952;2023-11-18T03:55:15;19.53;;;11.93;;
10882;SDS011;5494;51.796;10.952;2023-11-18T03:57:44;16.90;;;12.13;;
10882;SDS011;5494;51.796;10.952;2023-11-18T04:00:15;20.47;;;12.73;;
10882;SDS011;5494;51.796;10.952;2023-11-18T04:02:44;24.77;;;16.40;;
10882;SDS011;5494;51.796;10.952;2023-11-18T04:05:13;28.17;;;17.60;;
10882;SDS011;5494;51.796;10.952;2023-11-18T04:07:41;31.40;;;20.37;;
10882;SDS011;5494;51.796;10.952;2023-11-18T04:10:11;29.83;;;19.43;;
10882;SDS011;5494;51.796;10.952;2023-11-18T04:12:39;28.10;;;19.00;;
10882;SDS011;5494;51.796;10.952;2023-11-18T04:15:07;29.93;;;20.17;;
10882;SDS011;5494;51.796;10.952;2023-11-18T04:17:37;29.83;;;19.77;;
10882;SDS011;5494;51.796;10.952;2023-11-18T04:20:07;28.37;;;18.70;;
10882;SDS011;5494;51.796;10.952;2023-11-18T04:22:39;31.33;;;19.33;;
10882;SDS011;5494;51.796;10.952;2023-11-18T04:25:08;27.87;;;18.03;;
10882;SDS011;5494;51.796;10.952;2023-11-18T04:27:38;30.37;;;19.30;;
10882;SDS011;5494;51.796;10.952;2023-11-18T04:30:12;29.43;;;18.53;;
10882;SDS011;5494;51.796;10.952;2023-11-18T04:32:40;28.73;;;17.13;;
10882;SDS011;5494;51.796;10.952;2023-11-18T04:35:10;24.47;;;14.53;;
10882;SDS011;5494;51.796;10.952;2023-11-18T04:37:39;20.83;;;13.27;;
10882;SDS011;5494;51.796;10.952;2023-11-18T04:40:10;20.47;;;13.20;;
10882;SDS011;5494;51.796;10.952;2023-11-18T04:42:41;21.13;;;13.20;;
10882;SDS011;5494;51.796;10.952;2023-11-18T04:45:10;18.50;;;12.47;;
10882;SDS011;5494;51.796;10.952;2023-11-18T04:47:40;21.10;;;11.93;;
10882;SDS011;5494;51.796;10.952;2023-11-18T04:50:10;16.07;;;11.07;;
10882;SDS011;5494;51.796;10.952;2023-11-18T04:52:39;15.03;;;10.30;;
10882;SDS011;5494;51.796;10.952;2023-11-18T04:55:08;15.03;;;10.23;;
10882;SDS011;5494;51.796;10.952;2023-11-18T04:57:36;17.63;;;11.13;;
10882;SDS011;5494;51.796;10.952;2023-11-18T05:00:07;16.10;;;11.10;;
10882;SDS011;5494;51.796;10.952;2023-11-18T05:02:38;16.60;;;10.13;;
10882;SDS011;5494;51.796;10.952;2023-11-18T05:05:07;15.47;;;11.17;;
10882;SDS011;5494;51.796;10.952;2023-11-18T05:07:36;14.33;;;9.40;;
10882;SDS011;5494;51.796;10.952;2023-11-18T05:10:05;16.03;;;10.50;;
10882;SDS011;5494;51.796;10.952;2023-11-18T05:12:35;13.60;;;10.23;;
10882;SDS011;5494;51.796;10.952;2023-11-18T05:15:03;15.60;;;10.70;;
10882;SDS011;5494;51.796;10.952;2023-11-18T05:17:35;15.97;;;10.20;;
10882;SDS011;5494;51.796;10.952;2023-11-18T05:20:04;14.13;;;9.70;;
10882;SDS011;5494;51.796;10.952;2023-11-18T05:22:35;13.27;;;9.30;;
10882;SDS011;5494;51.796;10.952;2023-11-18T05:25:04;13.33;;;9.17;;
10882;SDS011;5494;51.796;10.952;2023-11-18T05:27:33;13.03;;;10.10;;
10882;SDS011;5494;51.796;10.952;2023-11-18T05:30:02;12.40;;;9.40;;
10882;SDS011;5494;51.796;10.952;2023-11-18T05:32:33;12.93;;;9.53;;
10882;SDS011;5494;51.796;10.952;2023-11-18T05:35:01;13.07;;;8.83;;
10882;SDS011;5494;51.796;10.952;2023-11-18T05:37:31;13.67;;;8.90;;
10882;SDS011;5494;51.796;10.952;2023-11-18T05:40:05;13.53;;;9.97;;
10882;SDS011;5494;51.796;10.952;2023-11-18T05:42:37;11.87;;;9.40;;
10882;SDS011;5494;51.796;10.952;2023-11-18T05:45:08;15.73;;;10.30;;
10882;SDS011;5494;51.796;10.952;2023-11-18T05:47:45;14.03;;;9.80;;
10882;SDS011;5494;51.796;10.952;2023-11-18T05:50:13;14.27;;;9.87;;
10882;SDS011;5494;51.796;10.952;2023-11-18T05:52:42;14.57;;;9.90;;
10882;SDS011;5494;51.796;10.952;2023-11-18T05:55:10;14.27;;;10.30;;
10882;SDS011;5494;51.796;10.952;2023-11-18T05:57:39;14.63;;;11.10;;
10882;SDS011;5494;51.796;10.952;2023-11-18T06:00:07;14.63;;;10.03;;
10882;SDS011;5494;51.796;10.952;2023-11-18T06:02:38;14.37;;;10.20;;
10882;SDS011;5494;51.796;10.952;2023-11-18T06:05:08;12.27;;;9.67;;
10882;SDS011;5494;51.796;10.952;2023-11-18T06:07:39;16.40;;;9.93;;
10882;SDS011;5494;51.796;10.952;2023-11-18T06:10:12;13.30;;;9.80;;
10882;SDS011;5494;51.796;10.952;2023-11-18T06:12:40;14.10;;;9.70;;
10882;SDS011;5494;51.796;10.952;2023-11-18T06:15:08;13.37;;;10.03;;
10882;SDS011;5494;51.796;10.952;2023-11-18T06:17:43;12.97;;;9.70;;
10882;SDS011;5494;51.796;10.952;2023-11-18T06:20:13;17.70;;;11.20;;
10882;SDS011;5494;51.796;10.952;2023-11-18T06:22:43;16.27;;;9.67;;
10882;SDS011;5494;51.796;10.952;2023-11-18T06:25:11;12.80;;;9.87;;
10882;SDS011;5494;51.796;10.952;2023-11-18T06:27:40;14.50;;;10.07;;
10882;SDS011;5494;51.796;10.952;2023-11-18T06:30:11;13.30;;;9.83;;
10882;SDS011;5494;51.796;10.952;2023-11-18T06:32:42;15.27;;;9.90;;
10882;SDS011;5494;51.796;10.952;2023-11-18T06:35:10;12.47;;;9.43;;
10882;SDS011;5494;51.796;10.952;2023-11-18T06:37:45;15.07;;;10.70;;
10882;SDS011;5494;51.796;10.952;2023-11-18T06:40:13;16.60;;;9.90;;
10882;SDS011;5494;51.796;10.952;2023-11-18T06:42:45;17.77;;;10.30;;
10882;SDS011;5494;51.796;10.952;2023-11-18T06:45:13;13.73;;;10.30;;
10882;SDS011;5494;51.796;10.952;2023-11-18T06:47:43;18.57;;;11.30;;
10882;SDS011;5494;51.796;10.952;2023-11-18T06:50:11;19.23;;;12.13;;
10882;SDS011;5494;51.796;10.952;2023-11-18T06:52:42;19.97;;;11.17;;
10882;SDS011;5494;51.796;10.952;2023-11-18T06:55:15;21.03;;;12.90;;
10882;SDS011;5494;51.796;10.952;2023-11-18T06:57:43;21.20;;;12.13;;
10882;SDS011;5494;51.796;10.952;2023-11-18T07:00:12;17.07;;;11.13;;
10882;SDS011;5494;51.796;10.952;2023-11-18T07:02:42;15.30;;;10.27;;
10882;SDS011;5494;51.796;10.952;2023-11-18T07:05:10;16.67;;;11.37;;
10882;SDS011;5494;51.796;10.952;2023-11-18T07:07:38;16.87;;;10.97;;
10882;SDS011;5494;51.796;10.952;2023-11-18T07:10:07;17.00;;;11.37;;
10882;SDS011;5494;51.796;10.952;2023-11-18T07:12:40;16.97;;;11.53;;
10882;SDS011;5494;51.796;10.952;2023-11-18T07:15:09;16.57;;;11.87;;
10882;SDS011;5494;51.796;10.952;2023-11-18T07:17:38;18.90;;;12.33;;
10882;SDS011;5494;51.796;10.952;2023-11-18T07:20:07;21.03;;;14.50;;
10882;SDS011;5494;51.796;10.952;2023-11-18T07:22:39;21.13;;;14.27;;
10882;SDS011;5494;51.796;10.952;2023-11-18T07:25:11;18.17;;;13.20;;
10882;SDS011;5494;51.796;10.952;2023-11-18T07:27:40;20.43;;;14.27;;
10882;SDS011;5494;51.796;10.952;2023-11-18T07:30:08;18.10;;;12.83;;
10882;SDS011;5494;51.796;10.952;2023-11-18T07:32:38;18.43;;;12.60;;
10882;SDS011;5494;51.796;10.952;2023-11-18T07:35:07;18.23;;;12.10;;
10882;SDS011;5494;51.796;10.952;2023-11-18T07:37:36;20.27;;;13.17;;
10882;SDS011;5494;51.796;10.952;2023-11-18T07:40:04;15.73;;;11.23;;
10882;SDS011;5494;51.796;10.952;2023-11-18T07:42:38;18.20;;;11.30;;
10882;SDS011;5494;51.796;10.952;2023-11-18T07:45:08;21.00;;;12.30;;
10882;SDS011;5494;51.796;10.952;2023-11-18T07:47:44;15.03;;;11.40;;
10882;SDS011;5494;51.796;10.952;2023-11-18T07:50:15;17.37;;;11.93;;
10882;SDS011;5494;51.796;10.952;2023-11-18T07:52:46;15.13;;;10.67;;
10882;SDS011;5494;51.796;10.952;2023-11-18T07:55:15;15.80;;;11.23;;
10882;SDS011;5494;51.796;10.952;2023-11-18T07:57:44;16.03;;;10.77;;
10882;SDS011;5494;51.796;10.952;2023-11-18T08:00:14;16.30;;;9.63;;
10882;SDS011;5494;51.796;10.952;2023-11-18T08:02:43;12.80;;;9.07;;
10882;SDS011;5494;51.796;10.952;2023-11-18T08:05:12;11.37;;;7.90;;
10882;SDS011;5494;51.796;10.952;2023-11-18T08:07:41;11.07;;;8.83;;
10882;SDS011;5494;51.796;10.952;2023-11-18T08:10:11;13.23;;;9.20;;
10882;SDS011;5494;51.796;10.952;2023-11-18T08:12:39;11.80;;;8.40;;
10882;SDS011;5494;51.796;10.952;2023-11-18T08:15:09;14.40;;;10.00;;
10882;SDS011;5494;51.796;10.952;2023-11-18T08:17:39;12.10;;;9.53;;
10882;SDS011;5494;51.796;10.952;2023-11-18T08:20:07;15.17;;;9.57;;
10882;SDS011;5494;51.796;10.952;2023-11-18T08:22:40;11.83;;;9.53;;
10882;SDS011;5494;51.796;10.952;2023-11-18T08:25:10;12.53;;;10.83;;
10882;SDS011;5494;51.796;10.952;2023-11-18T08:27:39;10.40;;;8.47;;
10882;SDS011;5494;51.796;10.952;2023-11-18T08:30:08;12.50;;;8.37;;
10882;SDS011;5494;51.796;10.952;2023-11-18T08:32:39;10.47;;;8.17;;
10882;SDS011;5494;51.796;10.952;2023-11-18T08:35:10;13.37;;;8.43;;
10882;SDS011;5494;51.796;10.952;2023-11-18T08:37:40;10.90;;;7.90;;
10882;SDS011;5494;51.796;10.952;2023-11-18T08:40:11;10.30;;;7.20;;
10882;SDS011;5494;51.796;10.952;2023-11-18T08:42:42;11.53;;;7.63;;
10882;SDS011;5494;51.796;10.952;2023-11-18T08:45:17;11.93;;;8.53;;
10882;SDS011;5494;51.796;10.952;2023-11-18T08:47:52;9.23;;;6.77;;
10882;SDS011;5494;51.796;10.952;2023-11-18T08:50:21;9.87;;;6.80;;
10882;SDS011;5494;51.796;10.952;2023-11-18T08:52:51;8.77;;;6.80;;
10882;SDS011;5494;51.796;10.952;2023-11-18T08:55:26;10.27;;;6.93;;
10882;SDS011;5494;51.796;10.952;2023-11-18T08:58:08;8.43;;;6.50;;
10882;SDS011;5494;51.796;10.952;2023-11-18T09:00:47;11.70;;;6.97;;
10882;SDS011;5494;51.796;10.952;2023-11-18T09:03:21;8.63;;;6.87;;
10882;SDS011;5494;51.796;10.952;2023-11-18T09:05:55;8.53;;;6.83;;
10882;SDS011;5494;51.796;10.952;2023-11-18T09:08:25;8.43;;;6.07;;
10882;SDS011;5494;51.796;10.952;2023-11-18T09:10:56;9.90;;;6.47;;
10882;SDS011;5494;51.796;10.952;2023-11-18T09:13:25;9.80;;;6.63;;
10882;SDS011;5494;51.796;10.952;2023-11-18T09:15:58;7.80;;;6.27;;
10882;SDS011;5494;51.796;10.952;2023-11-18T09:18:30;8.83;;;6.27;;
10882;SDS011;5494;51.796;10.952;2023-11-18T09:21:04;7.43;;;5.90;;
10882;SDS011;5494;51.796;10.952;2023-11-18T09:23:34;8.57;;;6.17;;
10882;SDS011;5494;51.796;10.952;2023-11-18T09:26:04;8.47;;;6.60;;
10882;SDS011;5494;51.796;10.952;2023-11-18T09:28:34;6.90;;;5.80;;
10882;SDS011;5494;51.796;10.952;2023-11-18T09:31:03;7.63;;;5.87;;
10882;SDS011;5494;51.796;10.952;2023-11-18T09:33:39;5.53;;;4.80;;
10882;SDS011;5494;51.796;10.952;2023-11-18T09:36:13;9.20;;;5.90;;
10882;SDS011;5494;51.796;10.952;2023-11-18T09:38:44;6.87;;;5.53;;
10882;SDS011;5494;51.796;10.952;2023-11-18T09:41:15;7.20;;;5.77;;
10882;SDS011;5494;51.796;10.952;2023-11-18T09:43:45;6.17;;;5.43;;
10882;SDS011;5494;51.796;10.952;2023-11-18T09:46:15;10.27;;;6.60;;
10882;SDS011;5494;51.796;10.952;2023-11-18T09:48:52;8.13;;;5.93;;
10882;SDS011;5494;51.796;10.952;2023-11-18T09:51:33;6.87;;;5.63;;
10882;SDS011;5494;51.796;10.952;2023-11-18T09:54:11;11.00;;;7.80;;
10882;SDS011;5494;51.796;10.952;2023-11-18T09:56:49;17.70;;;10.60;;
10882;SDS011;5494;51.796;10.952;2023-11-18T09:59:37;18.70;;;11.53;;
10882;SDS011;5494;51.796;10.952;2023-11-18T10:02:22;21.07;;;13.00;;
10882;SDS011;5494;51.796;10.952;2023-11-18T10:04:53;17.53;;;11.50;;
10882;SDS011;5494;51.796;10.952;2023-11-18T10:07:26;11.50;;;8.90;;
10882;SDS011;5494;51.796;10.952;2023-11-18T10:09:59;12.10;;;8.37;;
10882;SDS011;5494;51.796;10.952;2023-11-18T10:12:28;10.77;;;7.47;;
10882;SDS011;5494;51.796;10.952;2023-11-18T10:14:56;10.57;;;7.63;;
10882;SDS011;5494;51.796;10.952;2023-11-18T10:17:25;9.67;;;6.73;;
10882;SDS011;5494;51.796;10.952;2023-11-18T10:19:56;12.63;;;7.17;;
10882;SDS011;5494;51.796;10.952;2023-11-18T10:22:27;10.70;;;7.37;;
10882;SDS011;5494;51.796;10.952;2023-11-18T10:24:58;10.53;;;6.33;;
10882;SDS011;5494;51.796;10.952;2023-11-18T10:27:28;11.70;;;7.40;;
10882;SDS011;5494;51.796;10.952;2023-11-18T10:29:58;10.77;;;7.27;;
10882;SDS011;5494;51.796;10.952;2023-11-18T10:32:36;12.07;;;7.40;;
10882;SDS011;5494;51.796;10.952;2023-11-18T10:35:07;12.73;;;6.63;;
10882;SDS011;5494;51.796;10.952;2023-11-18T10:37:37;10.93;;;7.03;;
10882;SDS011;5494;51.796;10.952;2023-11-18T10:40:10;11.20;;;6.57;;
10882;SDS011;5494;51.796;10.952;2023-11-18T10:42:42;9.53;;;6.63;;
10882;SDS011;5494;51.796;10.952;2023-11-18T10:45:20;12.47;;;8.13;;
10882;SDS011;5494;51.796;10.952;2023-11-18T10:47:54;13.73;;;8.17;;
10882;SDS011;5494;51.796;10.952;2023-11-18T10:50:25;12.13;;;6.97;;
10882;SDS011;5494;51.796;10.952;2023-11-18T10:52:58;18.60;;;10.37;;
10882;SDS011;5494;51.796;10.952;2023-11-18T10:55:35;13.13;;;8.80;;
10882;SDS011;5494;51.796;10.952;2023-11-18T10:58:04;16.83;;;9.30;;
10882;SDS011;5494;51.796;10.952;2023-11-18T11:00:46;13.23;;;8.60;;
10882;SDS011;5494;51.796;10.952;2023-11-18T11:03:16;13.93;;;8.80;;
10882;SDS011;5494;51.796;10.952;2023-11-18T11:05:46;11.80;;;8.00;;
10882;SDS011;5494;51.796;10.952;2023-11-18T11:08:16;13.13;;;6.93;;
10882;SDS011;5494;51.796;10.952;2023-11-18T11:11:01;10.73;;;7.17;;
10882;SDS011;5494;51.796;10.952;2023-11-18T11:13:35;10.47;;;6.53;;
10882;SDS011;5494;51.796;10.952;2023-11-18T11:16:04;10.07;;;6.00;;
10882;SDS011;5494;51.796;10.952;2023-11-18T11:18:38;10.07;;;6.30;;
10882;SDS011;5494;51.796;10.952;2023-11-18T11:21:21;9.33;;;5.70;;
10882;SDS011;5494;51.796;10.952;2023-11-18T11:23:57;8.90;;;5.47;;
10882;SDS011;5494;51.796;10.952;2023-11-18T11:26:40;9.83;;;6.10;;
10882;SDS011;5494;51.796;10.952;2023-11-18T11:29:29;9.53;;;5.37;;
10882;SDS011;5494;51.796;10.952;2023-11-18T11:32:09;9.17;;;5.90;;
10882;SDS011;5494;51.796;10.952;2023-11-18T11:34:51;10.80;;;6.30;;
10882;SDS011;5494;51.796;10.952;2023-11-18T11:37:25;10.43;;;6.63;;
10882;SDS011;5494;51.796;10.952;2023-11-18T11:39:56;12.87;;;6.33;;
10882;SDS011;5494;51.796;10.952;2023-11-18T11:42:25;9.93;;;6.00;;
10882;SDS011;5494;51.796;10.952;2023-11-18T11:44:55;10.87;;;6.40;;
10882;SDS011;5494;51.796;10.952;2023-11-18T11:47:25;10.57;;;6.23;;
10882;SDS011;5494;51.796;10.952;2023-11-18T11:49:57;9.80;;;5.67;;
10882;SDS011;5494;51.796;10.952;2023-11-18T11:52:42;11.20;;;5.80;;
10882;SDS011;5494;51.796;10.952;2023-11-18T11:55:19;10.07;;;5.60;;
10882;SDS011;5494;51.796;10.952;2023-11-18T11:58:02;7.90;;;5.40;;
10882;SDS011;5494;51.796;10.952;2023-11-18T12:00:32;6.90;;;4.40;;
10882;SDS011;5494;51.796;10.952;2023-11-18T12:03:01;9.27;;;5.73;;
10882;SDS011;5494;51.796;10.952;2023-11-18T12:05:31;9.10;;;5.10;;
10882;SDS011;5494;51.796;10.952;2023-11-18T12:08:02;8.23;;;5.50;;
10882;SDS011;5494;51.796;10.952;2023-11-18T12:10:39;6.83;;;5.23;;
10882;SDS011;5494;51.796;10.952;2023-11-18T12:13:07;11.63;;;5.20;;
10882;SDS011;5494;51.796;10.952;2023-11-18T12:15:49;8.90;;;5.70;;
10882;SDS011;5494;51.796;10.952;2023-11-18T12:18:24;7.77;;;5.17;;
10882;SDS011;5494;51.796;10.952;2023-11-18T12:20:53;8.20;;;6.10;;
10882;SDS011;5494;51.796;10.952;2023-11-18T12:23:23;8.00;;;5.83;;
10882;SDS011;5494;51.796;10.952;2023-11-18T12:25:53;9.57;;;5.10;;
10882;SDS011;5494;51.796;10.952;2023-11-18T12:28:24;9.77;;;5.80;;
10882;SDS011;5494;51.796;10.952;2023-11-18T12:30:57;10.30;;;6.10;;
10882;SDS011;5494;51.796;10.952;2023-11-18T12:33:52;9.40;;;5.60;;
10882;SDS011;5494;51.796;10.952;2023-11-18T12:39:55;7.77;;;5.40;;
10882;SDS011;5494;51.796;10.952;2023-11-18T12:46:08;8.13;;;5.27;;
10882;SDS011;5494;51.796;10.952;2023-11-18T12:49:22;8.17;;;4.63;;
10882;SDS011;5494;51.796;10.952;2023-11-18T12:51:52;9.47;;;5.47;;
10882;SDS011;5494;51.796;10.952;2023-11-18T12:54:23;10.70;;;6.10;;
10882;SDS011;5494;51.796;10.952;2023-11-18T12:56:55;7.90;;;5.17;;
10882;SDS011;5494;51.796;10.952;2023-11-18T12:59:24;8.63;;;5.67;;
10882;SDS011;5494;51.796;10.952;2023-11-18T13:01:52;9.37;;;5.80;;
10882;SDS011;5494;51.796;10.952;2023-11-18T13:04:24;10.03;;;6.10;;
10882;SDS011;5494;51.796;10.952;2023-11-18T13:06:54;9.03;;;5.10;;
10882;SDS011;5494;51.796;10.952;2023-11-18T13:09:22;7.73;;;5.60;;
10882;SDS011;5494;51.796;10.952;2023-11-18T13:11:58;9.73;;;5.70;;
10882;SDS011;5494;51.796;10.952;2023-11-18T13:14:31;9.20;;;5.80;;
10882;SDS011;5494;51.796;10.952;2023-11-18T13:17:02;8.20;;;6.10;;
10882;SDS011;5494;51.796;10.952;2023-11-18T13:19:33;8.33;;;5.83;;
10882;SDS011;5494;51.796;10.952;2023-11-18T13:22:02;8.93;;;4.83;;
10882;SDS011;5494;51.796;10.952;2023-11-18T13:24:34;8.83;;;5.20;;
10882;SDS011;5494;51.796;10.952;2023-11-18T13:27:08;7.80;;;5.20;;
10882;SDS011;5494;51.796;10.952;2023-11-18T13:29:39;7.97;;;5.30;;
10882;SDS011;5494;51.796;10.952;2023-11-18T13:32:11;6.83;;;4.83;;
10882;SDS011;5494;51.796;10.952;2023-11-18T13:34:41;9.33;;;5.10;;
10882;SDS011;5494;51.796;10.952;2023-11-18T13:37:10;8.27;;;5.33;;
10882;SDS011;5494;51.796;10.952;2023-11-18T13:39:43;8.07;;;5.47;;
10882;SDS011;5494;51.796;10.952;2023-11-18T13:42:21;7.53;;;5.57;;
10882;SDS011;5494;51.796;10.952;2023-11-18T13:44:52;8.57;;;5.97;;
10882;SDS011;5494;51.796;10.952;2023-11-18T13:47:20;7.30;;;5.63;;
10882;SDS011;5494;51.796;10.952;2023-11-18T13:49:49;9.30;;;6.40;;
10882;SDS011;5494;51.796;10.952;2023-11-18T13:52:18;10.27;;;5.93;;
10882;SDS011;5494;51.796;10.952;2023-11-18T13:54:47;8.07;;;5.40;;
10882;SDS011;5494;51.796;10.952;2023-11-18T13:57:23;8.47;;;5.90;;
10882;SDS011;5494;51.796;10.952;2023-11-18T13:59:51;8.83;;;6.30;;
10882;SDS011;5494;51.796;10.952;2023-11-18T14:02:20;8.53;;;6.07;;
10882;SDS011;5494;51.796;10.952;2023-11-18T14:04:49;6.80;;;5.70;;
10882;SDS011;5494;51.796;10.952;2023-11-18T14:07:22;7.27;;;5.67;;
10882;SDS011;5494;51.796;10.952;2023-11-18T14:09:50;7.73;;;5.83;;
10882;SDS011;5494;51.796;10.952;2023-11-18T14:12:24;7.73;;;5.73;;
10882;SDS011;5494;51.796;10.952;2023-11-18T14:14:54;9.13;;;6.10;;
10882;SDS011;5494;51.796;10.952;2023-11-18T14:17:22;9.03;;;6.70;;
10882;SDS011;5494;51.796;10.952;2023-11-18T14:19:50;7.97;;;6.03;;
10882;SDS011;5494;51.796;10.952;2023-11-18T14:22:18;7.80;;;6.40;;
10882;SDS011;5494;51.796;10.952;2023-11-18T14:24:46;7.43;;;5.93;;
10882;SDS011;5494;51.796;10.952;2023-11-18T14:27:14;9.27;;;6.17;;
10882;SDS011;5494;51.796;10.952;2023-11-18T14:29:44;8.73;;;5.97;;
10882;SDS011;5494;51.796;10.952;2023-11-18T14:32:13;8.20;;;6.13;;
10882;SDS011;5494;51.796;10.952;2023-11-18T14:34:41;9.77;;;7.13;;
10882;SDS011;5494;51.796;10.952;2023-11-18T14:37:09;10.43;;;7.07;;
10882;SDS011;5494;51.796;10.952;2023-11-18T14:39:37;9.17;;;6.93;;
10882;SDS011;5494;51.796;10.952;2023-11-18T14:42:06;9.60;;;7.07;;
10882;SDS011;5494;51.796;10.952;2023-11-18T14:44:35;9.47;;;6.37;;
10882;SDS011;5494;51.796;10.952;2023-11-18T14:47:05;10.03;;;7.20;;
10882;SDS011;5494;51.796;10.952;2023-11-18T14:49:33;8.80;;;6.97;;
10882;SDS011;5494;51.796;10.952;2023-11-18T14:52:01;8.60;;;6.83;;
10882;SDS011;5494;51.796;10.952;2023-11-18T14:54:30;7.47;;;6.30;;
10882;SDS011;5494;51.796;10.952;2023-11-18T14:57:02;10.20;;;7.17;;
10882;SDS011;5494;51.796;10.952;2023-11-18T14:59:31;8.40;;;6.30;;